Time;durP1;ratioP1;P1;durP2;ratioP2;P2;SDS_P1;SDS_P2;PMS_P1;PMS_P2;Temp;Humidity;BMP_temperature;BMP_pressure;BME280_temperature;BME280_humidity;BME280_pressure;Samples;Min_cycle;Max_cycle;Signal;HPM_P1;HPM_P2
2022/07/25 00:02:17;;;;;;;2.17;1.98;;;;;;;25.85;57.46;100591.19;5001951;28;20018;-65
2022/07/25 00:04:43;;;;;;;1.80;1.55;;;;;;;25.83;57.57;100582.59;4990156;28;20045;-65
2022/07/25 00:07:08;;;;;;;2.35;1.60;;;;;;;25.79;57.97;100589.47;4996740;28;20136;-65
2022/07/25 00:09:34;;;;;;;1.80;1.38;;;;;;;25.75;57.77;100586.47;5003965;28;20041;-65
2022/07/25 00:11:59;;;;;;;1.67;1.58;;;;;;;25.73;57.77;100588.56;4991294;28;20105;-64
2022/07/25 00:14:25;;;;;;;2.17;1.50;;;;;;;25.67;57.88;100594.06;4997694;28;20041;-65
2022/07/25 00:16:51;;;;;;;2.22;1.75;;;;;;;25.78;57.47;100586.00;4981674;28;20497;-65
2022/07/25 00:19:17;;;;;;;2.03;1.73;;;;;;;25.89;57.08;100583.50;5000877;28;20451;-65
2022/07/25 00:21:42;;;;;;;3.72;1.70;;;;;;;25.85;56.94;100588.50;5000456;28;20037;-65
2022/07/25 00:24:08;;;;;;;1.80;1.67;;;;;;;25.85;57.32;100583.16;4986162;28;20034;-65
2022/07/25 00:26:33;;;;;;;1.48;1.27;;;;;;;25.81;57.49;100584.69;4995964;28;20041;-65
2022/07/25 00:29:00;;;;;;;3.88;1.65;;;;;;;25.78;57.98;100579.84;5000588;28;20397;-65
2022/07/25 00:31:25;;;;;;;1.85;1.52;;;;;;;25.73;58.06;100579.75;4984673;28;20391;-65
2022/07/25 00:33:51;;;;;;;3.45;1.95;;;;;;;25.67;58.24;100580.72;5001526;28;20033;-65
2022/07/25 00:36:16;;;;;;;2.05;1.55;;;;;;;25.64;58.51;100584.69;5002446;28;20030;-65
2022/07/25 00:38:42;;;;;;;1.85;1.40;;;;;;;25.65;58.58;100580.16;4996977;28;20037;-65
2022/07/25 00:41:08;;;;;;;1.70;1.50;;;;;;;25.66;58.94;100587.09;4993703;28;20466;-65
2022/07/25 00:43:33;;;;;;;2.85;1.65;;;;;;;25.60;58.83;100588.03;4994507;28;20554;-65
2022/07/25 00:45:59;;;;;;;1.70;1.17;;;;;;;25.58;58.74;100585.59;4988319;28;20027;-65
2022/07/25 00:48:28;;;;;;;2.28;1.92;;;;;;;25.54;59.17;100579.13;4975289;28;20120;-65
2022/07/25 00:50:57;;;;;;;2.58;1.52;;;;;;;25.50;59.48;100580.69;4995533;28;20031;-65
2022/07/25 00:53:24;;;;;;;3.10;1.58;;;;;;;25.44;59.13;100574.44;5001108;28;20038;-65
2022/07/25 00:55:50;;;;;;;2.00;1.70;;;;;;;25.31;59.15;100580.06;5000394;28;20032;-65
2022/07/25 00:58:17;;;;;;;1.92;1.60;;;;;;;25.34;59.13;100579.59;4992606;28;20713;-65
2022/07/25 01:00:43;;;;;;;1.83;1.65;;;;;;;25.37;59.04;100571.13;4979207;28;20025;-65
2022/07/25 01:03:08;;;;;;;2.67;1.83;;;;;;;25.38;59.44;100571.94;5003524;28;20479;-66
2022/07/25 01:05:34;;;;;;;2.15;1.70;;;;;;;25.37;59.51;100568.44;4989467;28;20126;-65
2022/07/25 01:08:00;;;;;;;2.20;1.92;;;;;;;25.37;59.25;100564.97;4990744;28;20034;-65
2022/07/25 01:10:25;;;;;;;2.35;1.92;;;;;;;25.31;58.87;100572.06;5000528;28;20081;-65
2022/07/25 01:12:53;;;;;;;1.75;1.65;;;;;;;25.33;59.00;100567.31;4997858;28;20034;-65
2022/07/25 01:15:21;;;;;;;2.45;1.83;;;;;;;25.36;59.27;100569.50;4993923;28;20037;-64
2022/07/25 01:17:47;;;;;;;1.90;1.42;;;;;;;25.27;59.61;100572.78;5000525;28;20521;-64
2022/07/25 01:20:17;;;;;;;2.13;1.45;;;;;;;25.22;60.03;100565.50;4996585;28;20034;-64
2022/07/25 01:22:43;;;;;;;1.73;1.55;;;;;;;25.23;59.92;100572.44;4995882;28;20433;-69
2022/07/25 01:25:10;;;;;;;3.22;1.70;;;;;;;25.20;60.10;100556.94;4990408;28;20030;-64
2022/07/25 01:27:36;;;;;;;1.88;1.67;;;;;;;25.15;60.17;100562.16;4987642;28;20033;-64
2022/07/25 01:30:05;;;;;;;1.85;1.52;;;;;;;25.11;60.57;100561.81;5001058;28;20046;-64
2022/07/25 01:32:30;;;;;;;1.90;1.60;;;;;;;25.09;60.68;100566.59;4972193;28;20407;-65
2022/07/25 01:34:56;;;;;;;2.28;2.08;;;;;;;25.07;60.63;100567.88;4993022;28;20038;-65
2022/07/25 01:37:21;;;;;;;2.20;2.00;;;;;;;25.03;60.56;100559.56;4990292;28;20057;-65
2022/07/25 01:39:47;;;;;;;2.08;1.38;;;;;;;25.03;60.79;100558.75;4990562;28;20045;-65
2022/07/25 01:42:12;;;;;;;2.08;1.85;;;;;;;24.98;60.85;100559.47;4988142;28;20197;-65
2022/07/25 01:44:38;;;;;;;2.15;1.90;;;;;;;24.95;60.79;100559.09;4973031;28;20030;-64
2022/07/25 01:47:03;;;;;;;1.65;1.50;;;;;;;24.93;60.87;100555.84;4988928;28;20086;-64
2022/07/25 01:49:29;;;;;;;2.28;1.38;;;;;;;24.92;61.09;100555.03;4989779;28;20037;-64
2022/07/25 01:51:55;;;;;;;2.25;2.03;;;;;;;24.91;61.33;100556.09;4988854;28;20038;-64
2022/07/25 01:54:20;;;;;;;2.20;1.55;;;;;;;24.86;61.47;100547.19;4989053;28;20507;-64
2022/07/25 01:56:46;;;;;;;1.90;1.70;;;;;;;24.85;61.66;100542.91;4988283;28;20489;-65
2022/07/25 01:59:11;;;;;;;2.25;1.50;;;;;;;24.84;61.58;100546.59;4988596;28;20034;-64
2022/07/25 02:01:37;;;;;;;3.85;2.28;;;;;;;24.79;61.85;100537.47;4988437;28;20053;-64
2022/07/25 02:04:03;;;;;;;2.20;1.67;;;;;;;24.74;61.50;100542.69;4987880;28;20030;-65
2022/07/25 02:06:28;;;;;;;2.92;1.92;;;;;;;24.71;61.50;100545.81;4992808;28;20157;-64
2022/07/25 02:08:53;;;;;;;2.15;1.65;;;;;;;24.72;61.55;100539.44;4988006;28;20181;-64
2022/07/25 02:11:19;;;;;;;2.15;1.95;;;;;;;24.72;61.67;100544.78;4978523;28;20077;-65
2022/07/25 02:13:45;;;;;;;2.15;1.95;;;;;;;24.67;61.67;100541.19;5000628;28;20049;-64
2022/07/25 02:16:11;;;;;;;2.10;1.75;;;;;;;24.68;61.50;100538.28;4990778;28;20050;-64
2022/07/25 02:18:37;;;;;;;2.13;1.55;;;;;;;24.63;61.58;100540.84;4970681;28;20065;-65
2022/07/25 02:21:06;;;;;;;1.90;1.42;;;;;;;24.61;61.51;100542.13;4987247;28;20126;-64
2022/07/25 02:23:32;;;;;;;2.80;2.10;;;;;;;24.55;62.08;100538.56;4970740;28;20073;-64
2022/07/25 02:25:57;;;;;;;1.70;1.60;;;;;;;24.50;62.25;100538.47;4990145;28;20026;-65
2022/07/25 02:28:23;;;;;;;2.25;1.77;;;;;;;24.48;62.17;100533.38;4987462;28;20064;-65
2022/07/25 02:30:48;;;;;;;2.88;1.63;;;;;;;24.53;62.20;100539.84;4986640;28;20030;-65
2022/07/25 02:33:14;;;;;;;3.20;1.80;;;;;;;24.55;62.20;100533.25;4987663;28;20058;-64
2022/07/25 02:35:39;;;;;;;2.38;1.73;;;;;;;24.52;62.25;100527.59;4994816;28;20109;-65
2022/07/25 02:38:05;;;;;;;2.72;2.15;;;;;;;24.50;62.21;100530.47;4993261;28;20394;-65
2022/07/25 02:40:30;;;;;;;1.90;1.40;;;;;;;24.53;61.85;100529.19;4988052;28;20121;-65
2022/07/25 02:42:56;;;;;;;2.03;1.70;;;;;;;24.51;62.16;100531.28;4987976;28;20049;-65
2022/07/25 02:45:21;;;;;;;1.33;1.23;;;;;;;24.47;62.25;100528.28;4989051;28;20557;-65
2022/07/25 02:47:47;;;;;;;2.08;1.67;;;;;;;24.44;62.55;100532.22;4987121;28;20486;-65
2022/07/25 02:50:12;;;;;;;2.13;1.67;;;;;;;24.41;62.52;100523.88;4988627;28;20122;-65
2022/07/25 02:52:38;;;;;;;1.92;1.73;;;;;;;24.41;62.15;100531.88;4988362;28;20026;-65
2022/07/25 02:55:05;;;;;;;2.08;1.80;;;;;;;24.41;62.82;100534.53;4987785;28;20483;-64
2022/07/25 02:57:31;;;;;;;2.05;1.58;;;;;;;24.37;62.51;100528.88;4986776;28;20034;-65
2022/07/25 02:59:56;;;;;;;2.53;1.73;;;;;;;24.33;62.72;100521.59;4988620;28;20592;-65
2022/07/25 03:02:22;;;;;;;2.28;1.50;;;;;;;24.32;62.77;100525.28;4767204;23;20215;-66
2022/07/25 03:04:47;;;;;;;1.67;1.58;;;;;;;24.32;62.52;100525.28;5008256;28;20045;-65
2022/07/25 03:07:12;;;;;;;3.55;2.05;;;;;;;24.34;62.87;100528.53;5004919;28;20540;-65
2022/07/25 03:09:38;;;;;;;2.15;1.95;;;;;;;24.32;63.68;100530.59;5009267;28;20032;-65
2022/07/25 03:12:04;;;;;;;1.98;1.80;;;;;;;24.28;63.68;100535.59;5006778;28;20034;-65
2022/07/25 03:14:29;;;;;;;2.55;2.08;;;;;;;24.21;64.34;100528.72;5007347;28;20065;-65
2022/07/25 03:16:55;;;;;;;2.92;1.65;;;;;;;24.17;64.71;100523.88;5006123;28;20117;-65
2022/07/25 03:19:21;;;;;;;2.50;1.83;;;;;;;24.12;65.36;100526.41;5005870;28;20052;-65
2022/07/25 03:21:46;;;;;;;3.10;1.88;;;;;;;24.07;65.71;100526.31;5005599;28;20137;-65
2022/07/25 03:24:12;;;;;;;1.83;1.48;;;;;;;24.00;65.56;100520.31;5006258;28;20030;-65
2022/07/25 03:26:37;;;;;;;2.33;1.80;;;;;;;23.98;65.40;100532.22;5006962;28;20478;-65
2022/07/25 03:29:03;;;;;;;3.10;1.80;;;;;;;23.98;64.84;100524.22;4990108;28;20038;-65
2022/07/25 03:31:28;;;;;;;1.83;1.67;;;;;;;23.91;65.30;100524.34;4989264;28;20068;-65
2022/07/25 03:33:54;;;;;;;4.22;2.38;;;;;;;23.83;66.10;100520.16;5006925;28;20436;-65
2022/07/25 03:36:19;;;;;;;2.25;1.88;;;;;;;23.73;65.79;100519.91;5007030;28;20041;-65
2022/07/25 03:38:45;;;;;;;2.35;1.67;;;;;;;23.77;65.84;100515.75;5007528;28;20033;-65
2022/07/25 03:41:11;;;;;;;2.30;2.00;;;;;;;23.81;65.71;100516.94;5008123;28;20033;-65
2022/07/25 03:43:36;;;;;;;5.97;2.13;;;;;;;23.80;65.77;100519.81;5007213;28;20128;-65
2022/07/25 03:46:02;;;;;;;2.95;1.63;;;;;;;23.81;65.56;100526.75;4990245;28;20030;-65
2022/07/25 03:48:27;;;;;;;2.20;2.00;;;;;;;23.82;65.48;100531.03;5004308;28;20033;-66
2022/07/25 03:50:55;;;;;;;2.65;2.15;;;;;;;23.85;65.09;100525.25;5007237;28;20498;-66
2022/07/25 03:53:21;;;;;;;2.40;1.80;;;;;;;23.90;64.74;100525.38;5006891;28;20021;-65
2022/07/25 03:55:46;;;;;;;2.25;2.05;;;;;;;23.97;64.34;100533.25;5006799;28;20041;-65
2022/07/25 03:58:12;;;;;;;2.13;1.92;;;;;;;24.02;64.31;100534.19;5006575;28;20060;-65
2022/07/25 04:00:37;;;;;;;3.72;1.98;;;;;;;24.07;63.72;100528.19;5006751;28;20049;-65
2022/07/25 04:03:03;;;;;;;1.95;1.73;;;;;;;24.11;63.16;100530.13;5007268;28;20414;-65
2022/07/25 04:05:29;;;;;;;2.60;2.10;;;;;;;24.14;63.05;100532.31;4986961;28;20033;-65
2022/07/25 04:07:54;;;;;;;2.88;2.05;;;;;;;24.24;62.30;100538.91;4971187;28;20100;-65
2022/07/25 04:10:20;;;;;;;1.67;1.45;;;;;;;24.33;62.07;100537.56;5006579;28;20401;-65
2022/07/25 04:12:46;;;;;;;2.97;1.40;;;;;;;24.42;61.26;100538.81;5008460;28;20450;-64
2022/07/25 04:15:11;;;;;;;2.30;1.98;;;;;;;24.58;60.46;100530.09;5007250;28;20026;-66
2022/07/25 04:17:37;;;;;;;2.75;1.83;;;;;;;24.70;59.98;100536.22;5006692;28;20552;-65
2022/07/25 04:20:04;;;;;;;2.95;1.77;;;;;;;24.71;59.82;100532.50;5005268;28;20127;-66
2022/07/25 04:22:30;;;;;;;2.88;2.28;;;;;;;24.93;59.31;100537.19;5005566;28;20030;-66
2022/07/25 04:24:55;;;;;;;1.50;1.33;;;;;;;24.98;59.01;100540.00;5008496;28;20095;-66
2022/07/25 04:27:21;;;;;;;2.63;1.52;;;;;;;25.09;58.66;100536.44;5006356;28;20472;-65
2022/07/25 04:29:46;;;;;;;2.33;2.08;;;;;;;25.21;58.25;100531.88;5006146;28;20041;-65
2022/07/25 04:32:13;;;;;;;2.00;1.80;;;;;;;25.30;58.43;100538.44;5006062;28;20037;-65
2022/07/25 04:34:38;;;;;;;2.53;1.92;;;;;;;25.26;58.61;100529.31;5007428;28;20041;-64
2022/07/25 04:37:04;;;;;;;1.80;1.67;;;;;;;25.27;59.10;100530.94;5009044;28;20029;-64
2022/07/25 04:39:29;;;;;;;2.17;1.63;;;;;;;25.30;59.30;100533.13;5011610;28;20052;-64
2022/07/25 04:41:55;;;;;;;2.20;2.00;;;;;;;25.35;59.63;100529.75;5010419;28;20040;-65
2022/07/25 04:44:20;;;;;;;1.98;1.77;;;;;;;25.42;59.46;100533.88;5009700;28;20930;-64
2022/07/25 04:46:46;;;;;;;2.03;1.70;;;;;;;25.64;57.94;100525.16;5010504;28;20516;-64
2022/07/25 04:49:11;;;;;;;2.08;1.77;;;;;;;25.81;57.66;100525.19;5008988;28;20568;-65
2022/07/25 04:51:37;;;;;;;2.13;1.88;;;;;;;25.87;56.79;100525.03;5008953;28;20030;-64
2022/07/25 04:54:03;;;;;;;1.90;1.63;;;;;;;25.97;56.62;100522.50;5010572;28;20034;-64
2022/07/25 04:56:28;;;;;;;2.72;2.03;;;;;;;26.05;55.81;100516.72;4990353;28;20136;-64
2022/07/25 04:58:54;;;;;;;1.92;1.73;;;;;;;26.24;55.85;100514.59;5007866;28;20160;-65
2022/07/25 05:01:19;;;;;;;2.65;2.00;;;;;;;26.44;54.53;100516.78;5007701;28;20074;-65
2022/07/25 05:03:45;;;;;;;1.50;1.25;;;;;;;26.65;54.13;100517.81;5009304;28;20127;-65
2022/07/25 05:06:10;;;;;;;1.60;1.27;;;;;;;26.82;53.59;100515.09;5010177;28;20069;-65
2022/07/25 05:08:36;;;;;;;1.63;1.30;;;;;;;26.96;53.13;100510.97;5010257;28;20077;-65
2022/07/25 05:11:01;;;;;;;2.83;1.50;;;;;;;27.05;52.82;100509.47;5010393;28;20026;-65
2022/07/25 05:13:27;;;;;;;1.88;1.60;;;;;;;27.11;52.63;100505.78;5010690;28;20042;-65
2022/07/25 05:15:52;;;;;;;1.95;1.65;;;;;;;27.22;52.00;100504.03;5010158;28;20524;-64
2022/07/25 05:18:18;;;;;;;2.50;1.60;;;;;;;27.32;51.35;100504.94;5008712;28;20033;-65
2022/07/25 05:20:43;;;;;;;1.50;1.30;;;;;;;27.39;51.27;100499.38;5009911;28;20478;-64
2022/07/25 05:23:09;;;;;;;2.15;1.83;;;;;;;27.47;50.88;100500.75;5010310;28;20099;-67
2022/07/25 05:25:34;;;;;;;2.63;1.27;;;;;;;27.51;50.23;100501.84;5009097;28;20050;-67
2022/07/25 05:28:00;;;;;;;2.47;1.35;;;;;;;27.60;50.08;100500.34;5009332;28;20041;-66
2022/07/25 05:30:26;;;;;;;1.77;1.35;;;;;;;27.70;50.21;100495.09;4989816;28;20038;-67
2022/07/25 05:32:51;;;;;;;1.83;1.27;;;;;;;27.68;50.21;100502.56;5007370;28;20141;-66
2022/07/25 05:35:17;;;;;;;1.60;1.38;;;;;;;27.65;50.86;100503.88;5007907;28;20669;-68
2022/07/25 05:37:42;;;;;;;1.55;1.38;;;;;;;27.62;51.21;100499.03;5006767;28;20044;-67
2022/07/25 05:40:08;;;;;;;2.42;1.70;;;;;;;27.65;51.21;100511.91;5010428;28;20313;-66
2022/07/25 05:42:34;;;;;;;2.80;1.70;;;;;;;27.73;51.16;100499.94;5009273;28;20139;-69
2022/07/25 05:45:00;;;;;;;2.20;1.73;;;;;;;27.87;50.51;100505.66;5009401;28;20076;-67
2022/07/25 05:47:25;;;;;;;2.58;1.52;;;;;;;27.93;50.45;100508.06;5007703;28;20029;-68
2022/07/25 05:49:51;;;;;;;1.50;1.33;;;;;;;28.01;50.28;100502.25;5010481;28;20034;-67
2022/07/25 05:52:16;;;;;;;1.83;1.60;;;;;;;28.03;50.51;100504.66;5008450;28;20029;-66
2022/07/25 05:54:42;;;;;;;1.65;1.40;;;;;;;28.11;49.88;100501.50;5008427;28;20034;-67
2022/07/25 05:57:07;;;;;;;2.00;1.08;;;;;;;28.17;49.80;100515.72;5009311;28;20358;-67
2022/07/25 05:59:33;;;;;;;3.95;1.10;;;;;;;28.24;49.52;100508.31;5009839;28;20037;-67
2022/07/25 06:02:00;;;;;;;1.67;1.50;;;;;;;28.34;47.69;100508.34;4975488;28;20089;-65
2022/07/25 06:04:25;;;;;;;2.30;1.50;;;;;;;28.44;48.19;100503.03;4989672;28;20144;-68
2022/07/25 06:06:51;;;;;;;1.55;1.13;;;;;;;28.69;47.58;100507.69;4990351;28;20486;-66
2022/07/25 06:09:18;;;;;;;1.70;1.13;;;;;;;28.79;47.48;100504.25;4990197;28;20253;-67
2022/07/25 06:11:44;;;;;;;1.48;1.15;;;;;;;28.91;46.80;100500.25;4990592;28;20413;-68
2022/07/25 06:14:09;;;;;;;3.10;1.27;;;;;;;28.95;46.72;100511.25;4990109;28;20022;-66
2022/07/25 06:16:34;;;;;;;1.42;1.33;;;;;;;29.11;46.63;100510.22;4990437;28;20026;-67
2022/07/25 06:19:00;;;;;;;1.40;1.17;;;;;;;29.23;46.38;100509.97;4990406;28;20491;-67
2022/07/25 06:21:25;;;;;;;2.72;1.63;;;;;;;29.33;46.46;100507.28;4990472;28;20390;-68
2022/07/25 06:23:51;;;;;;;1.98;1.52;;;;;;;29.25;46.66;100510.53;4990185;28;20026;-66
2022/07/25 06:26:17;;;;;;;1.40;1.15;;;;;;;29.27;46.59;100511.88;4972667;28;20038;-65
2022/07/25 06:28:43;;;;;;;2.97;1.30;;;;;;;29.44;46.70;100508.13;4972105;28;20022;-68
2022/07/25 06:31:08;;;;;;;2.33;1.13;;;;;;;29.64;46.91;100500.88;4989652;28;20054;-66
2022/07/25 06:33:34;;;;;;;2.05;1.60;;;;;;;29.75;46.51;100504.38;4989975;28;20053;-66
2022/07/25 06:35:59;;;;;;;2.03;1.25;;;;;;;29.74;46.37;100497.38;4989897;28;20352;-66
2022/07/25 06:38:25;;;;;;;1.88;1.30;;;;;;;29.74;45.92;100493.91;4989781;28;20379;-66
2022/07/25 06:40:50;;;;;;;1.75;1.20;;;;;;;29.79;45.67;100494.69;4989720;28;20034;-67
2022/07/25 06:43:16;;;;;;;1.98;1.50;;;;;;;29.91;45.61;100487.13;4989591;28;20038;-67
2022/07/25 06:45:45;;;;;;;1.58;1.30;;;;;;;29.99;45.38;100486.63;4989654;28;20466;-63
2022/07/25 06:48:12;;;;;;;1.70;1.33;;;;;;;29.99;45.29;100480.41;4989436;28;20145;-63
2022/07/25 06:50:37;;;;;;;3.25;1.20;;;;;;;29.92;45.11;100488.75;4989661;28;20156;-63
2022/07/25 06:53:02;;;;;;;2.10;1.60;;;;;;;30.07;44.59;100484.44;4972035;28;20133;-63
2022/07/25 06:55:28;;;;;;;2.03;1.40;;;;;;;30.19;44.39;100483.06;4989384;28;20478;-62
2022/07/25 06:57:53;;;;;;;2.10;1.30;;;;;;;30.26;44.24;100488.94;4988890;28;20065;-63
2022/07/25 07:00:19;;;;;;;1.50;1.40;;;;;;;30.34;44.20;100487.56;4988731;28;20034;-62
2022/07/25 07:02:55;;;;;;;1.88;1.17;;;;;;;30.76;42.92;100489.00;4989214;28;20190;-63
2022/07/25 07:05:22;;;;;;;1.58;1.15;;;;;;;31.09;41.32;100488.28;4993182;28;20026;-62
2022/07/25 07:07:48;;;;;;;1.58;1.20;;;;;;;30.99;41.67;100480.28;5008904;28;20080;-62
2022/07/25 07:10:14;;;;;;;2.17;1.20;;;;;;;31.05;41.12;100483.72;5008119;28;20501;-62
2022/07/25 07:12:40;;;;;;;1.77;1.30;;;;;;;31.05;41.34;100487.22;5008900;28;20160;-62
2022/07/25 07:15:06;;;;;;;1.45;0.98;;;;;;;31.01;41.21;100483.47;4988938;28;20505;-61
2022/07/25 07:17:31;;;;;;;1.42;1.08;;;;;;;31.14;40.45;100477.50;5007138;28;20522;-62
2022/07/25 07:19:57;;;;;;;1.75;1.40;;;;;;;31.12;41.17;100474.25;5008915;28;20025;-61
2022/07/25 07:22:22;;;;;;;2.15;0.90;;;;;;;31.18;41.14;100472.38;5007278;28;20458;-62
2022/07/25 07:24:48;;;;;;;0.90;0.60;;;;;;;31.15;40.33;100479.13;5008694;28;20045;-62
2022/07/25 07:27:13;;;;;;;1.73;1.30;;;;;;;31.20;40.36;100475.56;5008430;28;20494;-63
2022/07/25 07:29:39;;;;;;;1.55;0.90;;;;;;;31.25;40.13;100473.63;4991095;28;20065;-63
2022/07/25 07:32:05;;;;;;;1.23;1.02;;;;;;;31.31;39.79;100464.44;4990647;28;20587;-62
2022/07/25 07:34:31;;;;;;;1.60;0.90;;;;;;;31.51;39.72;100463.47;4983550;28;20029;-63
2022/07/25 07:36:56;;;;;;;1.85;1.20;;;;;;;31.66;39.33;100465.22;5008983;28;20024;-65
2022/07/25 07:39:22;;;;;;;2.20;1.35;;;;;;;31.67;39.38;100469.47;5007357;28;20494;-62
2022/07/25 07:41:48;;;;;;;1.25;1.15;;;;;;;31.59;39.22;100464.75;5004516;28;20030;-64
2022/07/25 07:44:13;;;;;;;1.67;1.30;;;;;;;31.68;39.30;100466.53;5002267;28;20046;-62
2022/07/25 07:46:39;;;;;;;1.58;1.08;;;;;;;31.88;38.90;100462.84;5008514;28;20022;-63
2022/07/25 07:49:04;;;;;;;1.08;0.98;;;;;;;32.15;38.77;100467.63;5007041;28;20038;-64
2022/07/25 07:51:30;;;;;;;1.38;1.08;;;;;;;31.90;38.71;100466.06;5008701;28;20029;-64
2022/07/25 07:56:40;;;;;;;1.40;1.00;;;;;;;31.77;39.08;100461.34;5008706;28;20072;-64
2022/07/25 07:59:06;;;;;;;1.65;1.25;;;;;;;32.11;38.65;100465.84;5008621;28;20030;-64
2022/07/25 08:01:32;;;;;;;1.38;1.10;;;;;;;32.43;38.52;100463.28;5004100;28;20030;-61
2022/07/25 08:03:58;;;;;;;1.35;1.00;;;;;;;32.37;38.35;100458.25;5003454;28;20447;-61
2022/07/25 08:06:24;;;;;;;1.38;1.00;;;;;;;32.35;38.41;100453.16;4988992;28;20398;-65
2022/07/25 08:08:49;;;;;;;1.33;1.02;;;;;;;32.26;38.12;100449.50;5006982;28;20041;-61
2022/07/25 08:11:15;;;;;;;1.70;1.40;;;;;;;32.44;38.17;100454.13;5005617;28;20071;-63
2022/07/25 08:13:40;;;;;;;1.70;1.27;;;;;;;32.71;38.00;100444.56;4987325;28;20387;-66
2022/07/25 08:16:06;;;;;;;1.40;1.05;;;;;;;33.00;37.53;100449.84;4991858;28;20056;-66
2022/07/25 08:18:32;;;;;;;1.88;1.20;;;;;;;33.10;36.84;100447.75;5008486;28;20036;-62
2022/07/25 08:21:01;;;;;;;2.08;1.42;;;;;;;33.26;36.73;100442.91;5010168;28;20547;-65
2022/07/25 08:23:27;;;;;;;1.90;1.40;;;;;;;33.22;36.99;100440.00;4992593;28;20156;-66
2022/07/25 08:25:53;;;;;;;1.60;1.17;;;;;;;33.19;36.99;100443.28;4992771;28;20600;-67
2022/07/25 08:28:19;;;;;;;1.38;0.98;;;;;;;33.11;36.70;100440.44;4991106;28;20389;-65
2022/07/25 08:30:45;;;;;;;1.83;1.40;;;;;;;33.16;36.67;100437.69;5006848;28;20497;-66
2022/07/25 08:33:14;;;;;;;1.20;0.90;;;;;;;33.29;36.44;100434.25;5008158;28;20025;-66
2022/07/25 08:35:46;;;;;;;7.63;1.63;;;;;;;33.48;35.85;100432.31;5005861;28;20029;-63
2022/07/25 08:38:11;;;;;;;1.33;1.05;;;;;;;33.75;35.64;100434.22;5006849;28;20033;-63
2022/07/25 08:40:37;;;;;;;1.27;1.02;;;;;;;33.79;35.66;100427.16;5011285;28;20030;-64
2022/07/25 08:43:03;;;;;;;1.58;1.10;;;;;;;33.95;35.09;100419.53;5008913;28;20084;-62
2022/07/25 08:45:29;;;;;;;1.92;1.13;;;;;;;34.25;34.98;100418.09;5004526;28;20440;-63
2022/07/25 08:47:55;;;;;;;1.65;1.30;;;;;;;34.49;34.92;100418.69;5010433;28;20097;-63
2022/07/25 08:50:26;;;;;;;1.77;1.45;;;;;;;34.49;34.81;100415.19;4991883;28;20124;-62
2022/07/25 08:52:53;;;;;;;2.33;1.55;;;;;;;34.73;34.30;100412.16;4991690;28;20037;-63
2022/07/25 08:55:21;;;;;;;1.13;0.80;;;;;;;34.83;34.73;100406.56;5005881;28;20041;-66
2022/07/25 08:57:49;;;;;;;1.80;1.40;;;;;;;34.52;34.96;100401.81;5008565;28;20096;-66
2022/07/25 09:00:22;;;;;;;1.60;1.30;;;;;;;34.64;34.65;100408.59;4993379;28;20500;-63
2022/07/25 09:03:00;;;;;;;1.13;1.02;;;;;;;34.49;33.89;100402.44;5010738;28;20514;-65
2022/07/25 09:05:27;;;;;;;1.50;1.13;;;;;;;34.55;34.49;100401.22;4992139;28;20048;-64
2022/07/25 09:07:54;;;;;;;1.63;1.30;;;;;;;34.76;34.45;100404.25;5010767;28;20036;-65
2022/07/25 09:10:23;;;;;;;1.67;1.58;;;;;;;34.83;33.91;100407.34;4993153;28;20396;-65
2022/07/25 09:13:00;;;;;;;2.05;1.20;;;;;;;34.93;33.19;100404.41;4998526;28;20417;-64
2022/07/25 09:15:32;;;;;;;1.20;0.93;;;;;;;34.89;33.52;100400.72;5010697;28;20590;-65
2022/07/25 09:17:59;;;;;;;2.30;1.33;;;;;;;35.03;33.50;100394.41;5008752;28;20025;-66
2022/07/25 09:20:49;;;;;;;1.98;1.35;;;;;;;35.10;33.52;100384.75;5004123;28;20039;-63
2022/07/25 09:23:50;;;;;;;1.42;1.23;;;;;;;35.02;33.66;100388.19;4991192;28;20037;-62
2022/07/25 09:26:17;;;;;;;1.00;0.80;;;;;;;35.16;34.03;100391.63;4947612;28;20492;-63
2022/07/25 09:28:45;;;;;;;1.40;1.30;;;;;;;35.15;33.79;100386.53;4946808;28;20074;-62
2022/07/25 09:31:12;;;;;;;2.58;0.80;;;;;;;34.84;34.79;100386.50;4948093;28;20047;-64
2022/07/25 09:33:50;;;;;;;1.10;1.00;;;;;;;35.04;34.01;100387.88;4930471;29;20062;-64
2022/07/25 09:36:17;;;;;;;1.83;0.95;;;;;;;35.19;33.98;100384.78;4939506;28;20031;-65
2022/07/25 09:39:04;;;;;;;1.80;1.42;;;;;;;34.98;31.81;100387.22;4946468;29;20035;-65
2022/07/25 09:41:37;;;;;;;1.90;0.98;;;;;;;34.97;32.36;100385.66;4931190;29;20129;-64
2022/07/25 09:44:15;;;;;;;1.13;1.02;;;;;;;35.16;31.84;100377.28;4949215;28;20035;-65
2022/07/25 09:46:40;;;;;;;1.38;1.20;;;;;;;35.06;32.66;100372.94;4945897;28;20539;-64
2022/07/25 09:49:08;;;;;;;1.90;1.23;;;;;;;35.12;32.61;100366.28;4947698;28;20070;-64
2022/07/25 09:51:34;;;;;;;1.65;1.38;;;;;;;35.23;32.38;100367.63;4932932;29;20306;-62
2022/07/25 09:54:02;;;;;;;1.85;1.40;;;;;;;35.08;32.32;100365.31;4948552;28;20047;-62
2022/07/25 09:56:27;;;;;;;2.17;1.83;;;;;;;34.96;32.55;100361.59;4943632;28;20035;-63
2022/07/25 09:58:53;;;;;;;2.03;1.42;;;;;;;35.10;32.45;100354.16;4945320;28;20031;-62
2022/07/25 10:01:26;;;;;;;1.30;1.20;;;;;;;35.07;32.38;100363.69;4998286;28;20397;-62
2022/07/25 10:04:05;;;;;;;1.27;1.00;;;;;;;35.09;32.46;100357.97;5005188;28;20075;-62
2022/07/25 10:06:38;;;;;;;1.52;1.15;;;;;;;34.44;31.84;100355.78;5006270;28;20501;-63
2022/07/25 10:09:13;;;;;;;1.48;1.05;;;;;;;34.21;32.28;100357.63;5000862;28;21028;-62
2022/07/25 10:11:38;;;;;;;1.35;1.25;;;;;;;34.18;33.10;100347.41;5006968;28;20760;-65
2022/07/25 10:14:11;;;;;;;1.42;1.33;;;;;;;34.29;32.15;100343.38;5013669;28;20034;-62
2022/07/25 10:16:47;;;;;;;1.83;1.67;;;;;;;34.22;31.59;100348.41;5007313;28;20029;-63
2022/07/25 10:19:13;;;;;;;2.13;1.13;;;;;;;34.13;32.67;100340.22;5006044;28;20537;-63
2022/07/25 10:21:39;;;;;;;2.85;1.35;;;;;;;34.41;32.47;100340.97;5005307;28;20026;-62
2022/07/25 10:24:08;;;;;;;1.88;1.23;;;;;;;34.61;31.85;100337.75;4988092;28;20018;-64
2022/07/25 10:26:38;;;;;;;1.50;1.27;;;;;;;34.68;31.92;100334.63;5002718;28;20064;-63
2022/07/25 10:29:09;;;;;;;1.40;1.27;;;;;;;34.71;31.97;100328.59;4998172;28;20034;-63
2022/07/25 10:31:44;;;;;;;1.40;1.30;;;;;;;34.94;31.89;100326.72;5000423;28;20488;-63
2022/07/25 10:34:12;;;;;;;1.20;0.90;;;;;;;35.14;31.60;100320.75;4980112;28;20030;-63
2022/07/25 10:36:47;;;;;;;1.52;1.33;;;;;;;35.12;30.40;100322.16;4988922;28;20156;-63
2022/07/25 10:39:15;;;;;;;1.83;1.30;;;;;;;34.96;31.09;100321.00;4999998;28;20553;-64
2022/07/25 10:41:47;;;;;;;2.78;1.35;;;;;;;34.70;31.83;100316.19;5001171;28;20485;-63
2022/07/25 10:44:14;;;;;;;1.52;1.08;;;;;;;34.86;31.18;100313.94;5000995;28;20034;-66
2022/07/25 10:46:44;;;;;;;1.60;1.33;;;;;;;34.94;32.10;100310.47;5006328;28;20040;-64
2022/07/25 10:49:18;;;;;;;1.50;1.35;;;;;;;34.89;31.16;100307.91;5008309;28;20064;-64
2022/07/25 10:51:55;;;;;;;2.28;1.75;;;;;;;34.83;31.73;100298.31;5006764;28;20132;-65
2022/07/25 10:54:21;;;;;;;1.48;1.38;;;;;;;35.08;31.89;100299.53;5005150;28;20425;-65
2022/07/25 10:56:58;;;;;;;1.40;1.13;;;;;;;35.26;31.21;100296.59;5006400;28;20033;-65
2022/07/25 10:59:32;;;;;;;1.35;1.13;;;;;;;35.28;31.23;100298.19;5005877;28;20092;-65
2022/07/25 11:01:58;;;;;;;1.10;1.00;;;;;;;35.14;31.57;100299.09;5007889;28;20115;-64
2022/07/25 11:04:24;;;;;;;2.58;1.40;;;;;;;34.86;31.69;100289.56;5008727;28;20057;-65
2022/07/25 11:06:50;;;;;;;3.55;1.45;;;;;;;35.00;31.90;100292.16;5008070;28;20033;-63
2022/07/25 11:09:19;;;;;;;1.52;1.40;;;;;;;35.24;31.80;100292.59;5009341;28;20031;-63
2022/07/25 11:11:47;;;;;;;1.88;1.73;;;;;;;35.36;31.57;100292.03;5003483;28;20033;-65
2022/07/25 11:14:27;;;;;;;2.20;1.33;;;;;;;35.10;31.61;100298.09;5001941;28;20026;-66
2022/07/25 11:16:54;;;;;;;4.60;1.48;;;;;;;35.17;31.63;100290.34;5001675;28;20034;-66
2022/07/25 11:19:25;;;;;;;1.90;1.52;;;;;;;35.34;31.39;100280.72;5005555;28;20034;-64
2022/07/25 11:21:56;;;;;;;2.50;1.70;;;;;;;35.20;31.93;100281.59;5004122;28;20022;-64
2022/07/25 11:24:36;;;;;;;1.77;1.58;;;;;;;34.84;30.94;100278.25;5001560;28;20080;-64
2022/07/25 11:27:03;;;;;;;1.60;1.50;;;;;;;34.88;31.96;100271.91;5004408;28;20042;-66